createdAt,value
2022-08-04T00:00:17.755Z,101250.25
2022-08-04T00:03:14.999Z,101244.14
2022-08-04T00:06:02.067Z,101243.84
2022-08-04T00:08:49.924Z,101245.73
2022-08-04T00:11:23.289Z,101240.03
2022-08-04T00:14:03.944Z,101237.72
2022-08-04T00:16:39.933Z,101236.35
2022-08-04T00:19:12.539Z,101228.87
2022-08-04T00:21:43.872Z,101230.53
2022-08-04T00:24:14.376Z,101221.53
2022-08-04T00:26:45.124Z,101228.92
2022-08-04T00:29:14.569Z,101227.65
2022-08-04T00:31:54.982Z,101222.00
2022-08-04T00:34:15.509Z,101224.73
2022-08-04T00:36:45.570Z,101219.52
2022-08-04T00:39:15.737Z,101222.16
2022-08-04T00:42:07.928Z,101218.44
2022-08-04T00:45:02.646Z,101218.67
2022-08-04T00:47:44.183Z,101214.22
2022-08-04T00:50:53.427Z,101217.98
2022-08-04T00:53:38.320Z,101218.67
2022-08-04T00:56:18.357Z,101213.24
2022-08-04T00:59:05.423Z,101213.16
2022-08-04T01:01:52.936Z,101208.37
2022-08-04T01:04:46.989Z,101210.29
2022-08-04T01:07:28.331Z,101205.39
2022-08-04T01:10:00.827Z,101212.30
2022-08-04T01:12:33.978Z,101205.48
2022-08-04T01:15:04.644Z,101202.59
2022-08-04T01:17:52.105Z,101198.63
2022-08-04T01:20:26.639Z,101196.23
2022-08-04T01:23:22.998Z,101201.52
2022-08-04T01:26:42.805Z,101201.45
2022-08-04T01:29:16.735Z,101200.72
2022-08-04T01:32:07.729Z,101201.20
2022-08-04T01:34:42.723Z,101203.20
2022-08-04T01:37:21.296Z,101205.45
2022-08-04T01:40:05.714Z,101206.02
2022-08-04T01:42:37.373Z,101200.70
2022-08-04T01:45:09.650Z,101194.69
2022-08-04T01:47:41.503Z,101197.97
2022-08-04T01:50:13.021Z,101201.83
2022-08-04T01:52:47.604Z,101192.80
2022-08-04T01:55:17.912Z,101198.27
2022-08-04T01:57:49.479Z,101191.86
2022-08-04T02:00:24.399Z,101191.14
2022-08-04T02:02:54.829Z,101188.47
2022-08-04T02:06:03.325Z,101188.73
2022-08-04T02:08:22.738Z,101189.77
2022-08-04T02:10:59.535Z,101194.59
2022-08-04T02:13:32.518Z,101206.23
2022-08-04T02:16:13.719Z,101205.06
2022-08-04T02:19:02.920Z,101197.58
2022-08-04T02:21:42.619Z,101195.89
2022-08-04T02:24:09.649Z,101183.66
2022-08-04T02:26:41.158Z,101179.05
2022-08-04T02:29:16.353Z,101172.24
2022-08-04T02:32:00.092Z,101164.84
2022-08-04T02:34:31.927Z,101163.57
2022-08-04T02:37:01.847Z,101163.56
2022-08-04T02:39:48.515Z,101158.59
2022-08-04T02:42:06.671Z,101161.33
2022-08-04T02:44:37.101Z,101160.26
2022-08-04T02:47:07.780Z,101164.12
2022-08-04T02:49:38.542Z,101160.74
2022-08-04T02:52:11.247Z,101167.14
2022-08-04T02:54:44.019Z,101164.20
2022-08-04T02:57:14.788Z,101165.63
2022-08-04T03:00:10.268Z,101162.50
2022-08-04T03:03:13.016Z,101160.72
2022-08-04T03:06:01.648Z,101160.86
2022-08-04T03:08:36.971Z,101154.19
2022-08-04T03:11:41.007Z,101151.07
2022-08-04T03:14:31.396Z,101154.31
2022-08-04T03:17:21.823Z,101153.33
2022-08-04T03:20:03.532Z,101156.19
2022-08-04T03:23:00.054Z,101154.31
2022-08-04T03:25:57.359Z,101154.31
2022-08-04T03:28:44.913Z,101157.55
2022-08-04T03:31:29.225Z,101152.64
2022-08-04T03:34:28.846Z,101154.09
2022-08-04T03:37:12.919Z,101152.85
2022-08-04T03:40:00.286Z,101150.00
2022-08-04T03:42:35.661Z,101138.60
2022-08-04T03:45:20.557Z,101136.32
2022-08-04T03:48:04.439Z,101149.24
2022-08-04T03:51:32.234Z,101144.72
2022-08-04T03:53:52.506Z,101138.93
2022-08-04T03:56:46.023Z,101147.35
2022-08-04T03:59:25.119Z,101147.64
2022-08-04T04:02:29.313Z,101147.88
2022-08-04T04:05:14.003Z,101156.25
2022-08-04T04:07:59.737Z,101154.42
2022-08-04T04:10:28.702Z,101156.26
2022-08-04T04:13:16.915Z,101154.28
2022-08-04T04:16:09.370Z,101152.11
2022-08-04T04:18:50.782Z,101155.31
2022-08-04T04:21:32.129Z,101155.64
2022-08-04T04:24:16.375Z,101155.67
2022-08-04T04:27:15.801Z,101146.36
2022-08-04T04:30:11.385Z,101153.42
2022-08-04T04:32:46.668Z,101152.62
2022-08-04T04:35:22.003Z,101157.79
2022-08-04T04:38:03.359Z,101161.47
2022-08-04T04:40:56.722Z,101157.22
2022-08-04T04:44:01.089Z,101159.72
2022-08-04T04:46:38.840Z,101159.09
2022-08-04T04:49:20.035Z,101157.52
2022-08-04T04:51:58.069Z,101156.33
2022-08-04T04:54:36.341Z,101161.64
2022-08-04T04:57:17.870Z,101169.36
2022-08-04T04:59:50.447Z,101163.64
2022-08-04T05:02:26.878Z,101164.30
2022-08-04T05:05:08.426Z,101169.19
2022-08-04T05:07:57.874Z,101167.77
2022-08-04T05:10:47.653Z,101170.17
2022-08-04T05:14:35.877Z,101170.42
2022-08-04T05:16:34.549Z,101170.22
2022-08-04T05:19:12.753Z,101164.59
2022-08-04T05:22:04.934Z,101166.69
2022-08-04T05:24:37.373Z,101169.66
2022-08-04T05:27:10.196Z,101176.27
2022-08-04T05:29:44.317Z,101170.96
2022-08-04T05:32:16.685Z,101178.00
2022-08-04T05:34:49.130Z,101180.36
2022-08-04T05:37:20.763Z,101185.57
2022-08-04T05:39:54.877Z,101179.98
2022-08-04T05:42:24.680Z,101171.93
2022-08-04T05:44:54.567Z,101179.23
2022-08-04T05:47:24.308Z,101183.27
2022-08-04T05:50:01.605Z,101183.02
2022-08-04T05:52:26.537Z,101186.48
2022-08-04T05:54:56.569Z,101185.67
2022-08-04T05:57:26.638Z,101187.91
2022-08-04T05:59:58.561Z,101187.00
2022-08-04T06:02:29.387Z,101185.97
2022-08-04T06:04:59.376Z,101184.03
2022-08-04T06:07:29.036Z,101182.09
2022-08-04T06:09:58.638Z,101183.72
2022-08-04T06:12:40.110Z,101187.27
2022-08-04T06:15:11.066Z,101187.00
2022-08-04T06:19:56.368Z,101196.52
2022-08-04T06:20:18.429Z,101189.56
2022-08-04T06:22:50.534Z,101187.73
2022-08-04T06:25:22.802Z,101187.09
2022-08-04T06:27:52.922Z,101193.49
2022-08-04T06:30:24.177Z,101193.98
2022-08-04T06:33:04.064Z,101193.36
2022-08-04T06:35:30.294Z,101191.55
2022-08-04T06:38:01.453Z,101196.95
2022-08-04T06:40:33.597Z,101201.34
2022-08-04T06:43:05.271Z,101204.50
2022-08-04T06:45:36.608Z,101208.48
2022-08-04T06:48:07.260Z,101209.20
2022-08-04T06:51:26.619Z,101208.56
2022-08-04T06:53:08.815Z,101215.00
2022-08-04T06:55:39.049Z,101218.28
2022-08-04T06:58:09.010Z,101212.16
2022-08-04T07:00:40.666Z,101212.51
2022-08-04T07:03:10.116Z,101215.06
2022-08-04T07:05:40.273Z,101215.29
2022-08-04T07:08:11.601Z,101208.20
2022-08-04T07:10:42.271Z,101217.03
2022-08-04T07:13:11.913Z,101212.75
2022-08-04T07:15:42.998Z,101217.04
2022-08-04T07:18:12.394Z,101221.19
2022-08-04T07:20:46.131Z,101227.15
2022-08-04T07:23:21.008Z,101233.07
2022-08-04T07:26:10.978Z,101228.20
2022-08-04T07:28:28.483Z,101237.25
2022-08-04T07:30:59.261Z,101232.17
2022-08-04T07:33:30.148Z,101234.05
2022-08-04T07:36:09.860Z,101236.84
2022-08-04T07:38:31.314Z,101235.10
2022-08-04T07:41:03.900Z,101238.26
2022-08-04T07:43:33.675Z,101237.14
2022-08-04T07:46:03.108Z,101244.73
2022-08-04T07:48:32.568Z,101245.22
2022-08-04T07:51:02.263Z,101252.20
2022-08-04T07:53:55.372Z,101255.47
2022-08-04T07:56:05.685Z,101251.48
2022-08-04T07:58:35.268Z,101256.66
2022-08-04T08:01:05.262Z,101257.73
2022-08-04T08:03:35.040Z,101259.78
2022-08-04T08:06:18.164Z,101264.25
2022-08-04T08:08:39.484Z,101268.14
2022-08-04T08:11:09.529Z,101271.48
2022-08-04T08:13:39.571Z,101266.98
2022-08-04T08:16:09.108Z,101261.98
2022-08-04T08:18:38.540Z,101261.63
2022-08-04T08:21:10.565Z,101256.27
2022-08-04T08:23:40.610Z,101266.55
2022-08-04T08:26:10.178Z,101270.81
2022-08-04T08:28:40.099Z,101275.38
2022-08-04T08:31:09.522Z,101282.40
2022-08-04T08:33:38.854Z,101282.86
2022-08-04T08:36:24.540Z,101275.46
2022-08-04T08:39:13.643Z,101270.78
2022-08-04T08:41:46.193Z,101267.78
2022-08-04T08:44:57.984Z,101273.20
2022-08-04T08:48:05.176Z,101280.72
2022-08-04T08:50:21.343Z,101282.21
2022-08-04T08:53:13.443Z,101288.96
2022-08-04T08:55:57.820Z,101280.38
2022-08-04T08:58:48.253Z,101282.02
2022-08-04T09:01:43.151Z,101275.55
2022-08-04T09:04:23.242Z,101282.84
2022-08-04T09:07:08.790Z,101285.08
2022-08-04T09:09:59.438Z,101303.50
2022-08-04T09:12:42.261Z,101303.50
2022-08-04T09:15:16.916Z,101319.33
2022-08-04T09:17:54.774Z,101312.86
2022-08-04T09:20:30.718Z,101316.33
2022-08-04T09:23:15.046Z,101321.39
2022-08-04T09:25:56.454Z,101320.36
2022-08-04T09:28:52.274Z,101327.55
2022-08-04T09:31:14.449Z,101331.58
2022-08-04T09:33:58.756Z,101335.20
2022-08-04T09:36:40.643Z,101342.55
2022-08-04T09:39:13.155Z,101340.38
2022-08-04T09:42:14.571Z,101352.48
2022-08-04T09:45:06.166Z,101348.50
2022-08-04T09:47:54.188Z,101329.84
2022-08-04T09:50:40.891Z,101333.38
2022-08-04T09:53:39.162Z,101345.97
2022-08-04T09:56:11.570Z,101355.47
2022-08-04T09:58:41.782Z,101354.52
2022-08-04T10:01:14.318Z,101353.15
2022-08-04T10:03:46.605Z,101364.33
2022-08-04T10:06:47.827Z,101368.71
2022-08-04T10:09:37.616Z,101370.00
2022-08-04T10:12:18.982Z,101368.28
2022-08-04T10:15:03.348Z,101370.00
2022-08-04T10:17:51.791Z,101364.45
2022-08-04T10:20:44.636Z,101372.05
2022-08-04T10:23:21.364Z,101382.91
2022-08-04T10:26:08.502Z,101372.16
2022-08-04T10:28:39.942Z,101371.89
2022-08-04T10:31:11.321Z,101363.24
2022-08-04T10:33:53.121Z,101368.50
2022-08-04T10:36:24.880Z,101370.79
2022-08-04T10:39:00.232Z,101366.97
2022-08-04T10:41:32.699Z,101361.93
2022-08-04T10:44:08.647Z,101348.27
2022-08-04T10:46:42.595Z,101342.91
2022-08-04T10:49:17.643Z,101339.08
2022-08-04T10:51:59.596Z,101340.34
2022-08-04T10:54:32.334Z,101335.34
2022-08-04T10:57:07.401Z,101343.39
2022-08-04T10:59:48.595Z,101334.61
2022-08-04T11:02:21.172Z,101334.61
2022-08-04T11:04:56.130Z,101341.95
2022-08-04T11:07:25.851Z,101337.78
2022-08-04T11:09:55.128Z,101339.33
2022-08-04T11:12:27.921Z,101335.66
2022-08-04T11:15:08.008Z,101331.06
2022-08-04T11:17:57.858Z,101331.03
2022-08-04T11:20:35.880Z,101326.66
2022-08-04T11:23:12.490Z,101330.81
2022-08-04T11:26:07.137Z,101336.80
2022-08-04T11:28:46.016Z,101326.77
2022-08-04T11:31:18.490Z,101328.95
2022-08-04T11:34:15.984Z,101327.07
2022-08-04T11:36:57.290Z,101334.25
2022-08-04T11:39:31.324Z,101338.13
2022-08-04T11:42:23.147Z,101336.14
2022-08-04T11:44:55.581Z,101346.64
2022-08-04T11:47:38.945Z,101354.02
2022-08-04T11:50:23.139Z,101360.45
2022-08-04T11:52:54.825Z,101368.59
2022-08-04T11:55:27.256Z,101363.67
2022-08-04T11:57:57.062Z,101362.52
2022-08-04T12:00:29.191Z,101368.11
2022-08-04T12:03:22.272Z,101365.33
2022-08-04T12:05:57.706Z,101357.48
2022-08-04T12:08:53.953Z,101368.23
2022-08-04T12:11:26.505Z,101362.97
2022-08-04T12:14:00.838Z,101367.64
2022-08-04T12:16:33.156Z,101369.10
2022-08-04T12:19:06.762Z,101369.67
2022-08-04T12:21:43.506Z,101369.37
2022-08-04T12:24:22.865Z,101374.12
2022-08-04T12:26:56.861Z,101368.66
2022-08-04T12:29:29.077Z,101368.41
2022-08-04T12:32:01.697Z,101369.02
2022-08-04T12:34:36.305Z,101368.67
2022-08-04T12:37:34.198Z,101374.11
2022-08-04T12:40:27.940Z,101374.59
2022-08-04T12:42:55.799Z,101379.08
2022-08-04T12:45:24.647Z,101381.84
2022-08-04T12:47:57.269Z,101383.31
2022-08-04T12:50:27.944Z,101379.69
2022-08-04T12:53:02.297Z,101382.22
2022-08-04T12:55:32.030Z,101383.20
2022-08-04T12:58:04.334Z,101377.59
2022-08-04T13:00:41.757Z,101379.57
2022-08-04T13:03:11.900Z,101381.27
2022-08-04T13:05:42.123Z,101381.55
2022-08-04T13:08:12.408Z,101380.77
2022-08-04T13:10:44.519Z,101379.36
2022-08-04T13:13:22.004Z,101385.56
2022-08-04T13:16:08.729Z,101379.31
2022-08-04T13:18:42.725Z,101383.95
2022-08-04T13:21:21.209Z,101380.55
2022-08-04T13:24:10.078Z,101372.60
2022-08-04T13:26:43.250Z,101378.30
2022-08-04T13:28:55.189Z,101384.04
2022-08-04T13:31:35.831Z,101378.05
2022-08-04T13:34:19.011Z,101381.33
2022-08-04T13:36:41.361Z,101380.91
2022-08-04T13:39:17.481Z,101375.36
2022-08-04T13:41:57.965Z,101377.34
2022-08-04T13:44:27.354Z,101375.83
2022-08-04T13:47:14.722Z,101372.83
2022-08-04T13:50:08.457Z,101371.64
2022-08-04T13:52:14.205Z,101375.72
2022-08-04T13:54:46.032Z,101372.47
2022-08-04T13:57:30.710Z,101372.53
2022-08-04T14:00:10.147Z,101374.84
2022-08-04T14:02:42.845Z,101373.20
2022-08-04T14:05:32.589Z,101370.84
2022-08-04T14:08:11.850Z,101371.03
2022-08-04T14:10:41.526Z,101362.39
2022-08-04T14:13:10.889Z,101364.38
2022-08-04T14:16:01.657Z,101365.73
2022-08-04T14:18:23.648Z,101368.87
2022-08-04T14:21:10.845Z,101369.14
2022-08-04T14:23:47.632Z,101370.73
2022-08-04T14:26:32.455Z,101365.23
2022-08-04T14:29:25.110Z,101366.14
2022-08-04T14:31:31.017Z,101362.06
2022-08-04T14:34:04.689Z,101358.74
2022-08-04T14:37:16.392Z,101361.27
2022-08-04T14:39:13.219Z,101359.36
2022-08-04T14:41:51.085Z,101358.41
2022-08-04T14:44:21.514Z,101361.04
2022-08-04T14:46:54.712Z,101367.30
2022-08-04T14:49:24.240Z,101367.42
2022-08-04T14:51:59.109Z,101365.19
2022-08-04T14:54:31.241Z,101367.17
2022-08-04T14:57:01.493Z,101366.58
2022-08-04T14:59:42.020Z,101370.16
2022-08-04T15:02:12.554Z,101375.47
2022-08-04T15:04:43.941Z,101370.52
2022-08-04T15:07:13.266Z,101368.55
2022-08-04T15:09:44.421Z,101368.21
2022-08-04T15:12:13.748Z,101372.69
2022-08-04T15:14:44.902Z,101375.55
2022-08-04T15:17:30.118Z,101376.84
2022-08-04T15:19:55.777Z,101379.90
2022-08-04T15:22:17.824Z,101366.07
2022-08-04T15:24:55.242Z,101379.03
2022-08-04T15:27:19.529Z,101378.06
2022-08-04T15:29:59.237Z,101380.81
2022-08-04T15:32:22.548Z,101380.97
2022-08-04T15:34:55.483Z,101385.32
2022-08-04T15:37:34.126Z,101376.66
2022-08-04T15:40:27.163Z,101381.47
2022-08-04T15:43:24.449Z,101380.22
2022-08-04T15:46:33.034Z,101384.94
2022-08-04T15:48:28.522Z,101383.03
2022-08-04T15:51:02.569Z,101380.64
2022-08-04T15:54:03.483Z,101372.06
2022-08-04T15:56:32.962Z,101380.27
2022-08-04T15:59:02.259Z,101378.95
2022-08-04T16:01:31.558Z,101380.80
2022-08-04T16:04:01.802Z,101377.27
2022-08-04T16:06:40.158Z,101377.27
2022-08-04T16:09:09.507Z,101382.72
2022-08-04T16:11:41.731Z,101378.00
2022-08-04T16:14:10.940Z,101372.91
2022-08-04T16:16:45.116Z,101374.14
2022-08-04T16:19:20.227Z,101374.52
2022-08-04T16:21:57.808Z,101375.27
2022-08-04T16:24:40.193Z,101369.73
2022-08-04T16:27:15.821Z,101369.73
2022-08-04T16:29:47.843Z,101359.17
2022-08-04T16:32:26.276Z,101373.58
2022-08-04T16:35:03.606Z,101379.52
2022-08-04T16:37:39.683Z,101374.26
2022-08-04T16:40:39.185Z,101374.86
2022-08-04T16:43:11.402Z,101366.63
2022-08-04T16:45:59.913Z,101366.78
2022-08-04T16:48:30.924Z,101370.09
2022-08-04T16:51:07.586Z,101371.53
2022-08-04T16:53:52.191Z,101380.09
2022-08-04T16:56:14.530Z,101384.77
2022-08-04T16:58:53.631Z,101378.64
2022-08-04T17:01:33.631Z,101377.34
2022-08-04T17:03:56.144Z,101382.92
2022-08-04T17:06:24.691Z,101388.34
2022-08-04T17:08:53.968Z,101388.11
2022-08-04T17:11:26.378Z,101386.19
2022-08-04T17:14:02.265Z,101389.80
2022-08-04T17:16:27.339Z,101391.95
2022-08-04T17:18:57.855Z,101381.78
2022-08-04T17:21:30.292Z,101386.41
2022-08-04T17:24:16.258Z,101387.01
2022-08-04T17:26:40.299Z,101387.06
2022-08-04T17:29:08.227Z,101391.06
2022-08-04T17:31:40.553Z,101386.92
2022-08-04T17:34:16.571Z,101376.95
2022-08-04T17:36:45.279Z,101386.23
2022-08-04T17:39:18.699Z,101392.63
2022-08-04T17:44:19.447Z,101385.53
2022-08-04T17:46:49.716Z,101396.92
2022-08-04T17:49:21.578Z,101387.88
2022-08-04T17:52:04.387Z,101396.64
2022-08-04T17:54:36.717Z,101396.25
2022-08-04T17:57:20.153Z,101398.23
2022-08-04T18:02:32.832Z,101394.12
2022-08-04T18:05:05.933Z,101399.45
2022-08-04T18:08:34.535Z,101405.53
2022-08-04T18:10:30.601Z,101410.48
2022-08-04T18:12:41.954Z,101413.17
2022-08-04T18:15:29.979Z,101422.33
2022-08-04T18:18:20.506Z,101428.12
2022-08-04T18:20:31.459Z,101426.95
2022-08-04T18:23:01.016Z,101434.87
2022-08-04T18:25:51.277Z,101439.34
2022-08-04T18:28:01.560Z,101441.11
2022-08-04T18:30:53.916Z,101440.88
2022-08-04T18:33:24.566Z,101441.95
2022-08-04T18:36:33.962Z,101441.55
2022-08-04T18:38:22.738Z,101447.89
2022-08-04T18:40:53.118Z,101452.23
2022-08-04T18:43:14.326Z,101451.51
2022-08-04T18:45:40.602Z,101461.55
2022-08-04T18:48:14.574Z,101454.85
2022-08-04T18:51:09.387Z,101460.36
2022-08-04T18:53:13.490Z,101466.22
2022-08-04T18:55:55.934Z,101472.50
2022-08-04T18:58:26.797Z,101475.70
2022-08-04T19:00:46.133Z,101479.87
2022-08-04T19:03:22.870Z,101481.09
2022-08-04T19:05:48.580Z,101481.72
2022-08-04T19:08:32.926Z,101483.80
2022-08-04T19:10:49.083Z,101495.73
2022-08-04T19:13:25.461Z,101501.71
2022-08-04T19:15:51.304Z,101504.87
2022-08-04T19:18:20.659Z,101500.80
2022-08-04T19:20:50.090Z,101500.23
2022-08-04T19:24:29.275Z,101502.98
2022-08-04T19:26:01.461Z,101506.09
2022-08-04T19:28:22.937Z,101509.81
2022-08-04T19:30:54.853Z,101517.32
2022-08-04T19:33:25.203Z,101515.77
2022-08-04T19:35:54.847Z,101526.92
2022-08-04T19:38:24.207Z,101522.26
2022-08-04T19:40:53.770Z,101527.86
2022-08-04T19:43:23.201Z,101526.38
2022-08-04T19:45:52.684Z,101527.69
2022-08-04T19:48:23.797Z,101531.73
2022-08-04T19:50:53.160Z,101529.42
2022-08-04T19:53:33.155Z,101534.59
2022-08-04T19:55:54.173Z,101526.39
2022-08-04T19:58:26.242Z,101530.51
2022-08-04T20:00:56.165Z,101533.85
2022-08-04T20:04:09.892Z,101534.34
2022-08-04T20:05:57.440Z,101534.17
2022-08-04T20:08:29.077Z,101543.09
2022-08-04T20:10:59.458Z,101540.37
2022-08-04T20:13:36.917Z,101545.59
2022-08-04T20:15:59.955Z,101542.54
2022-08-04T20:18:35.544Z,101541.17
2022-08-04T20:21:01.364Z,101534.53
2022-08-04T20:23:48.250Z,101545.55
2022-08-04T20:26:01.673Z,101548.13
2022-08-04T20:28:36.216Z,101558.78
2022-08-04T20:31:01.964Z,101564.72
2022-08-04T20:33:31.311Z,101558.69
2022-08-04T20:36:05.611Z,101560.06
2022-08-04T20:38:34.327Z,101565.84
2022-08-04T20:41:04.019Z,101562.88
2022-08-04T20:43:33.488Z,101560.54
2022-08-04T20:46:18.200Z,101554.39
2022-08-04T20:48:36.257Z,101550.20
2022-08-04T20:51:05.682Z,101551.37
2022-08-04T20:53:52.821Z,101552.36
2022-08-04T20:56:06.342Z,101550.12
2022-08-04T20:58:35.922Z,101557.02
2022-08-04T21:01:05.328Z,101553.05
2022-08-04T21:03:38.797Z,101544.81
2022-08-04T21:06:10.295Z,101549.83
2022-08-04T21:08:39.575Z,101546.97
2022-08-04T21:11:09.356Z,101541.86
2022-08-04T21:13:52.137Z,101543.92
2022-08-04T21:16:10.267Z,101543.96
2022-08-04T21:18:41.519Z,101543.83
2022-08-04T21:21:12.827Z,101554.02
2022-08-04T21:23:42.258Z,101558.40
2022-08-04T21:26:11.527Z,101555.67
2022-08-04T21:28:42.974Z,101544.14
2022-08-04T21:31:21.875Z,101542.11
2022-08-04T21:33:51.035Z,101540.25
2022-08-04T21:36:19.783Z,101544.95
2022-08-04T21:38:51.123Z,101547.66
2022-08-04T21:41:24.241Z,101535.86
2022-08-04T21:43:50.737Z,101521.36
2022-08-04T21:46:20.032Z,101502.27
2022-08-04T21:48:49.557Z,101509.20
2022-08-04T21:51:57.754Z,101525.16
2022-08-04T21:53:54.786Z,101528.94
2022-08-04T21:56:26.524Z,101530.86
2022-08-04T21:58:55.381Z,101526.70
2022-08-04T22:01:50.146Z,101522.05
2022-08-04T22:03:59.027Z,101515.46
2022-08-04T22:06:29.152Z,101506.19
2022-08-04T22:08:58.861Z,101518.02
2022-08-04T22:11:49.118Z,101523.09
2022-08-04T22:14:11.953Z,101526.10
2022-08-04T22:16:41.678Z,101530.09
2022-08-04T22:19:11.040Z,101527.02
2022-08-04T22:21:45.333Z,101533.88
2022-08-04T22:24:13.954Z,101531.14
2022-08-04T22:26:42.675Z,101526.00
2022-08-04T22:29:14.353Z,101521.77
2022-08-04T22:31:55.888Z,101517.21
2022-08-04T22:34:15.361Z,101508.47
2022-08-04T22:36:46.415Z,101504.02
2022-08-04T22:39:15.784Z,101498.14
2022-08-04T22:42:02.998Z,101494.67
2022-08-04T22:44:16.352Z,101482.78
2022-08-04T22:46:45.555Z,101476.70
2022-08-04T22:49:15.233Z,101479.22
2022-08-04T22:51:50.658Z,101481.98
2022-08-04T22:54:15.907Z,101494.87
2022-08-04T22:56:46.572Z,101502.19
2022-08-04T22:59:16.223Z,101505.45
2022-08-04T23:02:01.159Z,101509.33
2022-08-04T23:04:16.547Z,101503.09
2022-08-04T23:06:45.787Z,101508.55
2022-08-04T23:09:16.751Z,101517.70
2022-08-04T23:11:50.513Z,101509.63
2022-08-04T23:14:17.171Z,101497.39
2022-08-04T23:16:46.444Z,101507.81
2022-08-04T23:19:17.351Z,101511.59
2022-08-04T23:21:47.302Z,101511.75
2022-08-04T23:24:17.266Z,101501.44
2022-08-04T23:26:48.483Z,101492.91
2022-08-04T23:29:17.763Z,101500.88
2022-08-04T23:31:59.603Z,101513.45
2022-08-04T23:34:18.819Z,101511.04
2022-08-04T23:36:50.718Z,101511.59
2022-08-04T23:39:20.139Z,101515.88
2022-08-04T23:41:54.054Z,101515.59
2022-08-04T23:44:24.989Z,101516.68
2022-08-04T23:46:53.369Z,101510.66
2022-08-04T23:49:22.809Z,101511.28
2022-08-04T23:51:54.200Z,101500.26
2022-08-04T23:54:26.013Z,101506.52
2022-08-04T23:56:55.682Z,101493.81
2022-08-04T23:59:51.918Z,101494.99
